Time;durP1;ratioP1;P1;durP2;ratioP2;P2;SDS_P1;SDS_P2;PMS_P1;PMS_P2;Temp;Humidity;BMP_temperature;BMP_pressure;BME280_temperature;BME280_humidity;BME280_pressure;Samples;Min_cycle;Max_cycle;Signal;HPM_P1;HPM_P2
2024/03/17 00:00:18;;;;;;;22.85;13.50;;;;;;;;;;4869840;29;20390;-74
2024/03/17 00:02:47;;;;;;;23.25;14.80;;;;;;;;;;4869008;29;20056;-74
2024/03/17 00:05:15;;;;;;;;;;;;;;;;;;4869541;29;20049;-73
2024/03/17 00:07:44;;;;;;;28.50;14.82;;;;;;;;;;4868921;29;19928;-74
2024/03/17 00:10:12;;;;;;;25.40;17.17;;;;;;;;;;4853274;29;20049;-73
2024/03/17 00:12:40;;;;;;;29.13;17.85;;;;;;;;;;4868486;29;20060;-74
2024/03/17 00:15:10;;;;;;;26.77;15.65;;;;;;;;;;4867905;29;20049;-74
2024/03/17 00:17:39;;;;;;;32.10;17.67;;;;;;;;;;4867665;29;20037;-73
2024/03/17 00:20:18;;;;;;;28.63;18.00;;;;;;;;;;4869072;29;20048;-87
2024/03/17 00:22:49;;;;;;;31.13;17.80;;;;;;;;;;4868499;29;20041;-73
2024/03/17 00:25:18;;;;;;;26.55;15.93;;;;;;;;;;4868174;29;20049;-74
2024/03/17 00:27:48;;;;;;;31.40;16.42;;;;;;;;;;4868595;29;20520;-73
2024/03/17 00:30:16;;;;;;;31.50;16.77;;;;;;;;;;4868323;29;20052;-73
2024/03/17 00:32:44;;;;;;;23.20;14.65;;;;;;;;;;4868500;29;20406;-73
2024/03/17 00:35:20;;;;;;;27.25;15.02;;;;;;;;;;4867372;29;20059;-73
2024/03/17 00:37:49;;;;;;;26.45;15.20;;;;;;;;;;4867928;29;20053;-73
2024/03/17 00:40:21;;;;;;;26.27;14.65;;;;;;;;;;4868194;29;20870;-73
2024/03/17 00:42:50;;;;;;;25.15;16.00;;;;;;;;;;4867527;29;20048;-74
2024/03/17 00:45:18;;;;;;;25.88;14.68;;;;;;;;;;4869144;29;20048;-74
2024/03/17 00:47:46;;;;;;;26.30;14.35;;;;;;;;;;4868550;29;20056;-74
2024/03/17 00:50:15;;;;;;;25.98;14.20;;;;;;;;;;4868058;29;20044;-74
2024/03/17 00:52:44;;;;;;;18.08;12.57;;;;;;;;;;4867798;29;20660;-74
2024/03/17 00:55:14;;;;;;;23.52;12.95;;;;;;;;;;4867296;29;20051;-73
2024/03/17 00:57:44;;;;;;;21.63;13.75;;;;;;;;;;4868335;29;20057;-73
2024/03/17 01:00:13;;;;;;;22.52;14.15;;;;;;;;;;4867558;29;20542;-73
2024/03/17 01:02:42;;;;;;;23.00;14.80;;;;;;;;;;4868084;29;20041;-74
2024/03/17 01:05:12;;;;;;;24.05;14.32;;;;;;;;;;4867641;29;20053;-73
2024/03/17 01:07:40;;;;;;;21.48;14.65;;;;;;;;;;4867129;29;20064;-74
2024/03/17 01:10:09;;;;;;;21.13;14.02;;;;;;;;;;4869326;29;20045;-73
2024/03/17 01:12:40;;;;;;;24.88;14.05;;;;;;;;;;4867847;29;20411;-74
2024/03/17 01:15:08;;;;;;;19.13;13.15;;;;;;;;;;4867482;29;20056;-73
2024/03/17 01:17:36;;;;;;;;;;;;;;;;;;4853056;29;20081;-73
2024/03/17 01:20:06;;;;;;;20.83;13.10;;;;;;;;;;4867537;29;20006;-74
2024/03/17 01:22:35;;;;;;;24.13;14.57;;;;;;;;;;4867192;29;20037;-74
2024/03/17 01:25:03;;;;;;;21.75;14.00;;;;;;;;;;4852523;29;20056;-74
2024/03/17 01:27:31;;;;;;;22.30;13.20;;;;;;;;;;4869511;29;20056;-74
2024/03/17 01:29:59;;;;;;;18.75;13.93;;;;;;;;;;4871408;29;20072;-73
2024/03/17 01:32:28;;;;;;;19.17;11.32;;;;;;;;;;4871418;29;20045;-73
2024/03/17 01:34:57;;;;;;;18.60;12.23;;;;;;;;;;4870861;29;20049;-73
2024/03/17 01:37:25;;;;;;;16.60;12.10;;;;;;;;;;4871130;29;20057;-73
2024/03/17 01:39:53;;;;;;;21.83;12.55;;;;;;;;;;4871564;29;20800;-74
2024/03/17 01:42:22;;;;;;;18.98;11.68;;;;;;;;;;4855311;29;20061;-73
2024/03/17 01:45:29;;;;;;;15.80;10.65;;;;;;;;;;4857458;29;20083;-73
2024/03/17 01:48:00;;;;;;;18.58;11.05;;;;;;;;;;4871073;29;20048;-74
2024/03/17 01:50:36;;;;;;;19.45;11.25;;;;;;;;;;4870748;29;20056;-73
2024/03/17 01:53:08;;;;;;;17.00;11.30;;;;;;;;;;4871286;29;20111;-73
2024/03/17 01:55:38;;;;;;;21.55;12.00;;;;;;;;;;4870478;29;20409;-73
2024/03/17 01:58:09;;;;;;;16.63;9.23;;;;;;;;;;4870523;29;20491;-73
2024/03/17 02:00:38;;;;;;;21.27;10.85;;;;;;;;;;4870545;29;20059;-73
2024/03/17 02:03:06;;;;;;;;;;;;;;;;;;4871347;29;20516;-73
2024/03/17 02:05:37;;;;;;;13.18;9.70;;;;;;;;;;4870765;29;19928;-74
2024/03/17 02:08:06;;;;;;;15.02;10.07;;;;;;;;;;4870945;29;20072;-73
2024/03/17 02:10:35;;;;;;;13.80;8.88;;;;;;;;;;4855506;29;20052;-73
2024/03/17 02:13:05;;;;;;;14.93;10.07;;;;;;;;;;4871000;29;20052;-73
2024/03/17 02:15:33;;;;;;;12.85;9.55;;;;;;;;;;4869982;29;20075;-73
2024/03/17 02:18:02;;;;;;;13.32;9.02;;;;;;;;;;4870616;29;20662;-73
2024/03/17 02:23:18;;;;;;;19.38;8.85;;;;;;;;;;4870047;29;20064;-73
2024/03/17 02:25:47;;;;;;;16.17;8.68;;;;;;;;;;4870493;29;20052;-73
2024/03/17 02:28:16;;;;;;;12.82;8.23;;;;;;;;;;4869779;29;20049;-73
2024/03/17 02:30:44;;;;;;;12.10;7.90;;;;;;;;;;4869835;29;20045;-73
2024/03/17 02:33:13;;;;;;;12.52;7.53;;;;;;;;;;4854379;29;20076;-73
2024/03/17 02:35:41;;;;;;;15.35;8.63;;;;;;;;;;4870488;29;20053;-74
2024/03/17 02:39:31;;;;;;;17.10;9.27;;;;;;;;;;4869784;29;20045;-73
2024/03/17 02:41:04;;;;;;;15.23;8.40;;;;;;;;;;4870385;29;20056;-73
2024/03/17 02:43:33;;;;;;;19.75;12.20;;;;;;;;;;4870051;29;20049;-73
2024/03/17 02:46:04;;;;;;;21.85;12.23;;;;;;;;;;4869922;29;20056;-74
2024/03/17 02:48:32;;;;;;;21.65;13.52;;;;;;;;;;4870129;29;20045;-75
2024/03/17 02:51:00;;;;;;;18.63;12.32;;;;;;;;;;4869680;29;20505;-75
2024/03/17 02:53:29;;;;;;;19.73;13.02;;;;;;;;;;4869930;29;20052;-74
2024/03/17 02:55:58;;;;;;;17.20;11.13;;;;;;;;;;4870007;29;20416;-74
2024/03/17 02:58:27;;;;;;;18.55;11.45;;;;;;;;;;4870523;29;20044;-74
2024/03/17 03:00:55;;;;;;;18.08;10.63;;;;;;;;;;4870548;29;20045;-74
2024/03/17 03:03:24;;;;;;;15.82;10.02;;;;;;;;;;4869782;29;20052;-74
2024/03/17 03:05:52;;;;;;;17.70;11.73;;;;;;;;;;4869298;29;20539;-74
2024/03/17 03:08:21;;;;;;;20.20;10.98;;;;;;;;;;4869343;29;20368;-74
2024/03/17 03:10:50;;;;;;;17.67;9.93;;;;;;;;;;4868826;29;20045;-74
2024/03/17 03:13:19;;;;;;;;;;;;;;;;;;4870597;29;20056;-74
2024/03/17 03:15:48;;;;;;;16.25;9.88;;;;;;;;;;4869465;29;19934;-74
2024/03/17 03:18:18;;;;;;;18.30;10.68;;;;;;;;;;4869229;29;20052;-74
2024/03/17 03:20:52;;;;;;;15.70;10.35;;;;;;;;;;4869070;29;20049;-74
2024/03/17 03:23:21;;;;;;;15.35;9.90;;;;;;;;;;4869529;29;20057;-74
2024/03/17 03:25:56;;;;;;;12.45;8.98;;;;;;;;;;4869284;29;20049;-74
2024/03/17 03:28:26;;;;;;;12.38;9.15;;;;;;;;;;4869499;29;20045;-74
2024/03/17 03:30:54;;;;;;;16.83;10.27;;;;;;;;;;4868819;29;20053;-74
2024/03/17 03:33:24;;;;;;;17.35;9.38;;;;;;;;;;4869830;29;20052;-74
2024/03/17 03:35:52;;;;;;;13.90;9.57;;;;;;;;;;4869374;29;20052;-74
2024/03/17 03:38:21;;;;;;;14.13;8.75;;;;;;;;;;4853880;29;20394;-74
2024/03/17 03:40:50;;;;;;;13.02;8.52;;;;;;;;;;4869142;29;20052;-74
2024/03/17 03:43:18;;;;;;;15.65;9.45;;;;;;;;;;4869465;29;20049;-74
2024/03/17 03:45:47;;;;;;;15.93;9.48;;;;;;;;;;4869076;29;20075;-74
2024/03/17 03:48:16;;;;;;;14.20;9.20;;;;;;;;;;4868904;29;20048;-74
2024/03/17 03:50:44;;;;;;;14.23;8.80;;;;;;;;;;4868923;29;20064;-74
2024/03/17 03:53:13;;;;;;;19.15;9.30;;;;;;;;;;4868927;29;20044;-74
2024/03/17 03:55:41;;;;;;;15.07;8.60;;;;;;;;;;4869185;29;20060;-74
2024/03/17 03:58:12;;;;;;;14.73;10.63;;;;;;;;;;4868574;29;20061;-74
2024/03/17 04:00:41;;;;;;;14.45;9.48;;;;;;;;;;4853179;29;20049;-74
2024/03/17 04:03:09;;;;;;;19.70;9.40;;;;;;;;;;4868761;29;20056;-74
2024/03/17 04:05:38;;;;;;;16.75;9.30;;;;;;;;;;4868255;29;20049;-73
2024/03/17 04:08:06;;;;;;;17.35;10.32;;;;;;;;;;4868859;29;20045;-74
2024/03/17 04:10:35;;;;;;;16.40;11.13;;;;;;;;;;4868140;29;20049;-74
2024/03/17 04:13:04;;;;;;;13.82;10.50;;;;;;;;;;4868034;29;20523;-74
2024/03/17 04:15:34;;;;;;;15.95;10.80;;;;;;;;;;4868238;29;20056;-74
2024/03/17 04:18:02;;;;;;;14.98;11.23;;;;;;;;;;4866598;29;20517;-73
2024/03/17 04:20:30;;;;;;;16.17;10.60;;;;;;;;;;4865461;29;20068;-74
2024/03/17 04:23:04;;;;;;;18.45;11.50;;;;;;;;;;4867409;29;20049;-74
2024/03/17 04:25:33;;;;;;;20.02;11.95;;;;;;;;;;4867122;29;20068;-78
2024/03/17 04:28:02;;;;;;;15.32;10.57;;;;;;;;;;4850776;29;20049;-82
2024/03/17 04:30:31;;;;;;;17.08;11.43;;;;;;;;;;4866066;29;20052;-80
2024/03/17 04:32:59;;;;;;;15.13;10.13;;;;;;;;;;4865867;29;20056;-81
2024/03/17 04:35:28;;;;;;;17.75;10.60;;;;;;;;;;4867934;29;20075;-73
2024/03/17 04:37:57;;;;;;;14.32;10.20;;;;;;;;;;4867913;29;20057;-72
2024/03/17 04:40:25;;;;;;;12.07;9.23;;;;;;;;;;4867714;29;20048;-73
2024/03/17 04:42:54;;;;;;;13.15;8.65;;;;;;;;;;4868396;29;20064;-72
2024/03/17 04:45:23;;;;;;;15.38;9.25;;;;;;;;;;4867859;29;20056;-73
2024/03/17 04:47:52;;;;;;;11.52;9.23;;;;;;;;;;4867977;29;20053;-74
2024/03/17 04:50:21;;;;;;;14.50;9.18;;;;;;;;;;4852299;29;20057;-73
2024/03/17 04:52:50;;;;;;;13.85;9.52;;;;;;;;;;4867407;29;20045;-72
2024/03/17 04:55:18;;;;;;;12.77;8.75;;;;;;;;;;4868007;29;20049;-73
2024/03/17 04:57:47;;;;;;;10.50;7.95;;;;;;;;;;4867928;29;20068;-73
2024/03/17 05:00:17;;;;;;;14.77;8.38;;;;;;;;;;4867767;29;20073;-73
2024/03/17 05:02:46;;;;;;;11.75;9.20;;;;;;;;;;4866964;29;20056;-73
2024/03/17 05:05:15;;;;;;;12.25;8.48;;;;;;;;;;4867478;29;20045;-73
2024/03/17 05:07:43;;;;;;;10.45;8.07;;;;;;;;;;4868061;29;20052;-73
2024/03/17 05:10:11;;;;;;;11.93;7.63;;;;;;;;;;4867401;29;20049;-73
2024/03/17 05:12:40;;;;;;;12.50;7.90;;;;;;;;;;4867803;29;21071;-73
2024/03/17 05:15:08;;;;;;;10.52;7.35;;;;;;;;;;4867677;29;20062;-73
2024/03/17 05:17:37;;;;;;;15.02;9.20;;;;;;;;;;4867475;29;20425;-72
2024/03/17 05:20:07;;;;;;;14.00;8.48;;;;;;;;;;4867045;29;20052;-72
2024/03/17 05:22:36;;;;;;;14.93;9.82;;;;;;;;;;4867375;29;20045;-72
2024/03/17 05:25:05;;;;;;;14.02;9.65;;;;;;;;;;4852317;29;20052;-72
2024/03/17 05:27:33;;;;;;;11.57;8.88;;;;;;;;;;4867517;29;20053;-73
2024/03/17 05:30:01;;;;;;;16.60;9.05;;;;;;;;;;4867480;29;20882;-72
2024/03/17 05:32:30;;;;;;;15.05;9.02;;;;;;;;;;4867345;29;20054;-72
2024/03/17 05:34:58;;;;;;;11.77;7.45;;;;;;;;;;4866969;29;20412;-73
2024/03/17 05:37:27;;;;;;;14.70;7.10;;;;;;;;;;4867541;29;20052;-73
2024/03/17 05:39:55;;;;;;;9.85;7.22;;;;;;;;;;4867199;29;20056;-73
2024/03/17 05:42:24;;;;;;;15.70;8.35;;;;;;;;;;4867909;29;20049;-73
2024/03/17 05:44:53;;;;;;;11.68;7.82;;;;;;;;;;4867375;29;20416;-73
2024/03/17 05:47:22;;;;;;;9.27;7.25;;;;;;;;;;4867033;29;20505;-72
2024/03/17 05:49:50;;;;;;;;;;;;;;;;;;4867690;29;20436;-72
2024/03/17 05:52:19;;;;;;;12.75;6.78;;;;;;;;;;4867342;29;19935;-73
2024/03/17 05:54:47;;;;;;;14.35;7.47;;;;;;;;;;4867405;29;20060;-73
2024/03/17 05:57:16;;;;;;;;;;;;;;;;;;4867501;29;20060;-73
2024/03/17 05:59:44;;;;;;;14.00;7.88;;;;;;;;;;4867640;29;19927;-72
2024/03/17 06:02:14;;;;;;;12.60;8.88;;;;;;;;;;4867245;29;20041;-73
2024/03/17 06:04:43;;;;;;;11.35;8.40;;;;;;;;;;4867079;29;20053;-72
2024/03/17 06:07:14;;;;;;;16.58;9.05;;;;;;;;;;4866951;29;20053;-73
2024/03/17 06:09:43;;;;;;;12.55;7.38;;;;;;;;;;4866944;29;20056;-73
2024/03/17 06:12:11;;;;;;;18.17;7.82;;;;;;;;;;4867025;29;20041;-72
2024/03/17 06:14:39;;;;;;;15.55;8.07;;;;;;;;;;4870428;29;20048;-73
2024/03/17 06:17:08;;;;;;;10.90;7.43;;;;;;;;;;4870277;29;20064;-73
2024/03/17 06:19:36;;;;;;;11.93;9.02;;;;;;;;;;4870527;29;20417;-73
2024/03/17 06:22:08;;;;;;;15.15;8.73;;;;;;;;;;4870821;29;20428;-73
2024/03/17 06:24:37;;;;;;;12.95;9.02;;;;;;;;;;4855240;29;20424;-73
2024/03/17 06:27:06;;;;;;;16.20;10.82;;;;;;;;;;4870432;29;20045;-73
2024/03/17 06:29:35;;;;;;;13.73;10.75;;;;;;;;;;4870630;29;20052;-72
2024/03/17 06:32:03;;;;;;;17.05;10.30;;;;;;;;;;4870800;29;20048;-72
2024/03/17 06:34:32;;;;;;;15.50;10.52;;;;;;;;;;4871235;29;20045;-72
2024/03/17 06:37:00;;;;;;;17.02;10.18;;;;;;;;;;4869875;29;20057;-73
2024/03/17 06:39:29;;;;;;;12.98;9.82;;;;;;;;;;4870043;29;20432;-72
2024/03/17 06:41:58;;;;;;;15.77;10.23;;;;;;;;;;4870284;29;20049;-74
2024/03/17 06:44:30;;;;;;;13.10;10.18;;;;;;;;;;4869529;29;20049;-73
2024/03/17 06:46:58;;;;;;;13.15;10.27;;;;;;;;;;4869956;29;20049;-73
2024/03/17 06:49:27;;;;;;;15.60;10.73;;;;;;;;;;4854202;29;20083;-73
2024/03/17 06:51:55;;;;;;;15.95;10.48;;;;;;;;;;4870149;29;20106;-72
2024/03/17 06:54:24;;;;;;;14.10;9.95;;;;;;;;;;4854557;29;20398;-73
2024/03/17 06:56:53;;;;;;;15.00;10.85;;;;;;;;;;4869422;29;20057;-72
2024/03/17 06:59:21;;;;;;;17.88;10.05;;;;;;;;;;4869745;29;20425;-73
2024/03/17 07:01:50;;;;;;;18.23;11.43;;;;;;;;;;4870173;29;20048;-73
2024/03/17 07:04:18;;;;;;;17.15;10.07;;;;;;;;;;4869807;29;20045;-72
2024/03/17 07:06:47;;;;;;;17.27;10.65;;;;;;;;;;4870490;29;20513;-72
2024/03/17 07:09:17;;;;;;;13.07;9.82;;;;;;;;;;4870074;29;20103;-75
2024/03/17 07:11:46;;;;;;;15.93;10.50;;;;;;;;;;4869731;29;20045;-73
2024/03/17 07:14:14;;;;;;;13.68;9.88;;;;;;;;;;4869685;29;20118;-73
2024/03/17 07:16:43;;;;;;;13.48;10.18;;;;;;;;;;4869126;29;20060;-72
2024/03/17 07:19:11;;;;;;;12.38;8.90;;;;;;;;;;4870086;29;20520;-72
2024/03/17 07:21:39;;;;;;;14.38;10.00;;;;;;;;;;4869177;29;20061;-71
2024/03/17 07:24:08;;;;;;;15.52;10.18;;;;;;;;;;4869562;29;20045;-72
2024/03/17 07:26:37;;;;;;;13.15;9.75;;;;;;;;;;4869180;29;20053;-73
2024/03/17 07:29:05;;;;;;;13.48;9.77;;;;;;;;;;4869278;29;20049;-72
2024/03/17 07:31:33;;;;;;;15.43;9.50;;;;;;;;;;4869219;29;20076;-72
2024/03/17 07:34:02;;;;;;;13.15;9.55;;;;;;;;;;4853915;29;20068;-72
2024/03/17 07:36:31;;;;;;;13.68;9.13;;;;;;;;;;4869244;29;20053;-72
2024/03/17 07:38:59;;;;;;;12.40;9.15;;;;;;;;;;4869009;29;20056;-72
2024/03/17 07:41:28;;;;;;;15.20;9.15;;;;;;;;;;4868896;29;20053;-73
2024/03/17 07:43:57;;;;;;;10.48;8.32;;;;;;;;;;4868904;29;20056;-72
2024/03/17 07:46:26;;;;;;;15.38;8.52;;;;;;;;;;4868854;29;20049;-73
2024/03/17 07:48:54;;;;;;;15.75;9.23;;;;;;;;;;4868714;29;20060;-71
2024/03/17 07:51:23;;;;;;;15.32;9.07;;;;;;;;;;4869014;29;20056;-72
2024/03/17 07:53:51;;;;;;;13.02;8.65;;;;;;;;;;4854042;29;20056;-72
2024/03/17 07:56:20;;;;;;;13.90;8.27;;;;;;;;;;4868822;29;20509;-73
2024/03/17 07:58:50;;;;;;;13.32;9.35;;;;;;;;;;4853354;29;20060;-72
2024/03/17 08:01:19;;;;;;;14.15;9.65;;;;;;;;;;4869049;29;20412;-72
2024/03/17 08:03:55;;;;;;;13.52;8.60;;;;;;;;;;4868788;29;20048;-72
2024/03/17 08:06:24;;;;;;;12.25;9.30;;;;;;;;;;4852969;29;20521;-73
2024/03/17 08:08:54;;;;;;;12.20;9.55;;;;;;;;;;4868463;29;20049;-72
2024/03/17 08:11:22;;;;;;;13.15;9.02;;;;;;;;;;4869044;29;20056;-72
2024/03/17 08:13:50;;;;;;;15.82;8.77;;;;;;;;;;4869165;29;20052;-72
2024/03/17 08:16:19;;;;;;;13.30;8.93;;;;;;;;;;4852400;29;20405;-72
2024/03/17 08:18:48;;;;;;;13.60;9.25;;;;;;;;;;4868325;29;20045;-72
2024/03/17 08:21:17;;;;;;;11.10;8.52;;;;;;;;;;4867865;29;20053;-73
2024/03/17 08:23:47;;;;;;;15.68;8.98;;;;;;;;;;4868555;29;20053;-72
2024/03/17 08:26:15;;;;;;;13.75;8.93;;;;;;;;;;4868215;29;20072;-72
2024/03/17 08:28:43;;;;;;;11.70;8.20;;;;;;;;;;4868235;29;20056;-72
2024/03/17 08:31:12;;;;;;;11.20;8.63;;;;;;;;;;4868200;29;20048;-73
2024/03/17 08:33:41;;;;;;;14.40;8.35;;;;;;;;;;4868171;29;20041;-72
2024/03/17 08:36:10;;;;;;;11.80;8.68;;;;;;;;;;4852331;29;20049;-72
2024/03/17 08:38:39;;;;;;;14.63;8.35;;;;;;;;;;4868173;29;20053;-72
2024/03/17 08:41:10;;;;;;;12.05;8.35;;;;;;;;;;4867552;29;20532;-73
2024/03/17 08:43:41;;;;;;;12.05;9.23;;;;;;;;;;4868152;29;20053;-72
2024/03/17 08:46:13;;;;;;;10.82;8.10;;;;;;;;;;4868541;29;20781;-73
2024/03/17 08:48:42;;;;;;;14.68;8.60;;;;;;;;;;4868474;29;20405;-73
2024/03/17 08:51:10;;;;;;;15.32;9.05;;;;;;;;;;4868469;29;20053;-73
2024/03/17 08:53:39;;;;;;;10.80;8.52;;;;;;;;;;4868433;29;20053;-73
2024/03/17 08:56:08;;;;;;;15.65;8.65;;;;;;;;;;4867737;29;20083;-73
2024/03/17 08:58:37;;;;;;;10.43;8.52;;;;;;;;;;4851825;29;20433;-73
2024/03/17 09:01:08;;;;;;;12.80;8.85;;;;;;;;;;4867626;29;20515;-73
2024/03/17 09:03:39;;;;;;;18.20;8.60;;;;;;;;;;4867861;29;20069;-73
2024/03/17 09:06:18;;;;;;;12.02;9.15;;;;;;;;;;4867902;29;20056;-73
2024/03/17 09:08:48;;;;;;;17.75;9.10;;;;;;;;;;4867367;29;20048;-73
2024/03/17 09:11:17;;;;;;;;;;;;;;;;;;4868314;29;20064;-72
2024/03/17 09:13:45;;;;;;;18.73;8.68;;;;;;;;;;4868015;29;19935;-73
2024/03/17 09:16:13;;;;;;;13.65;8.60;;;;;;;;;;4867099;29;20484;-72
2024/03/17 09:18:42;;;;;;;13.05;8.68;;;;;;;;;;4867402;29;20056;-73
2024/03/17 09:21:11;;;;;;;16.08;9.25;;;;;;;;;;4867707;29;20045;-73
2024/03/17 09:23:40;;;;;;;11.93;9.05;;;;;;;;;;4851944;29;20529;-73
2024/03/17 09:26:11;;;;;;;14.30;8.73;;;;;;;;;;4867897;29;20060;-73
2024/03/17 09:28:39;;;;;;;15.60;8.98;;;;;;;;;;4867227;29;20044;-73
2024/03/17 09:31:08;;;;;;;14.45;8.50;;;;;;;;;;4867427;29;20056;-73
2024/03/17 09:33:38;;;;;;;13.85;8.30;;;;;;;;;;4867927;29;20501;-73
2024/03/17 09:36:14;;;;;;;16.90;8.50;;;;;;;;;;4868274;29;20053;-72
2024/03/17 09:38:45;;;;;;;15.65;8.93;;;;;;;;;;4868020;29;20045;-73
2024/03/17 09:41:26;;;;;;;14.45;8.38;;;;;;;;;;4867699;29;20320;-73
2024/03/17 09:43:56;;;;;;;13.73;9.07;;;;;;;;;;4867211;29;20060;-74
2024/03/17 09:46:26;;;;;;;14.82;9.90;;;;;;;;;;4867204;29;20049;-73
2024/03/17 09:48:57;;;;;;;13.43;8.98;;;;;;;;;;4869756;29;20045;-73
2024/03/17 09:51:27;;;;;;;14.77;9.02;;;;;;;;;;4870833;29;20053;-73
2024/03/17 09:53:55;;;;;;;15.88;9.63;;;;;;;;;;4871257;29;20076;-73
2024/03/17 09:56:24;;;;;;;20.50;11.27;;;;;;;;;;4855118;29;20069;-73
2024/03/17 09:58:53;;;;;;;20.20;11.23;;;;;;;;;;4870947;29;20057;-72
2024/03/17 10:01:21;;;;;;;24.45;11.30;;;;;;;;;;4870718;29;20056;-73
2024/03/17 10:03:54;;;;;;;18.15;10.75;;;;;;;;;;4871008;29;20537;-73
2024/03/17 10:06:24;;;;;;;19.48;10.10;;;;;;;;;;4871450;29;20060;-73
2024/03/17 10:08:54;;;;;;;24.40;11.07;;;;;;;;;;4870934;29;20056;-73
2024/03/17 10:11:25;;;;;;;17.90;10.57;;;;;;;;;;4870569;29;20045;-73
2024/03/17 10:14:05;;;;;;;17.05;10.65;;;;;;;;;;4870964;29;20044;-73
2024/03/17 10:16:35;;;;;;;22.92;11.00;;;;;;;;;;4870776;29;20053;-74
2024/03/17 10:19:17;;;;;;;21.42;11.23;;;;;;;;;;4870431;29;20509;-73
2024/03/17 10:21:50;;;;;;;18.77;9.68;;;;;;;;;;4870363;29;20045;-75
2024/03/17 10:24:27;;;;;;;13.50;9.38;;;;;;;;;;4855397;29;20045;-73
2024/03/17 10:26:59;;;;;;;17.02;9.85;;;;;;;;;;4870583;29;20057;-73
2024/03/17 10:29:36;;;;;;;19.13;9.90;;;;;;;;;;4854771;29;20045;-73
2024/03/17 10:32:18;;;;;;;21.42;9.98;;;;;;;;;;4870776;29;20377;-73
2024/03/17 10:34:47;;;;;;;18.98;10.25;;;;;;;;;;4869871;29;20060;-73
2024/03/17 10:37:20;;;;;;;18.88;11.30;;;;;;;;;;4870029;29;20053;-72
2024/03/17 10:39:55;;;;;;;17.60;10.57;;;;;;;;;;4870384;29;20053;-73
2024/03/17 10:42:31;;;;;;;20.45;11.02;;;;;;;;;;4870606;29;20045;-73
2024/03/17 10:45:00;;;;;;;15.00;10.82;;;;;;;;;;4870381;29;20053;-73
2024/03/17 10:47:28;;;;;;;19.67;11.52;;;;;;;;;;4870048;29;20056;-72
2024/03/17 10:49:56;;;;;;;16.77;10.90;;;;;;;;;;4870701;29;20064;-75
2024/03/17 10:52:26;;;;;;;24.95;11.80;;;;;;;;;;4870776;29;20049;-73
2024/03/17 10:54:55;;;;;;;15.90;10.85;;;;;;;;;;4855328;29;20432;-73
2024/03/17 10:57:35;;;;;;;17.67;10.43;;;;;;;;;;4869412;29;20060;-72
2024/03/17 11:00:08;;;;;;;21.15;10.30;;;;;;;;;;4869660;29;20045;-73
2024/03/17 11:02:36;;;;;;;17.10;9.27;;;;;;;;;;4854056;29;20789;-72
2024/03/17 11:05:14;;;;;;;17.73;9.35;;;;;;;;;;4869483;29;20640;-75
2024/03/17 11:07:48;;;;;;;14.43;9.32;;;;;;;;;;4869564;29;20048;-74
2024/03/17 11:10:32;;;;;;;15.20;9.15;;;;;;;;;;4869629;29;20049;-72
2024/03/17 11:13:02;;;;;;;13.60;7.57;;;;;;;;;;4869887;29;20131;-73
2024/03/17 11:15:33;;;;;;;10.43;7.63;;;;;;;;;;4869731;29;20064;-73
2024/03/17 11:18:11;;;;;;;11.07;7.57;;;;;;;;;;4854002;29;20053;-73
2024/03/17 11:20:55;;;;;;;11.15;7.63;;;;;;;;;;4868880;29;20065;-72
2024/03/17 11:23:29;;;;;;;11.50;6.28;;;;;;;;;;4869659;29;20056;-73
2024/03/17 11:26:01;;;;;;;9.38;6.57;;;;;;;;;;4869679;29;20057;-73
2024/03/17 11:28:45;;;;;;;8.43;6.70;;;;;;;;;;4869231;29;20053;-73
2024/03/17 11:31:32;;;;;;;14.70;6.72;;;;;;;;;;4869822;29;20045;-73
2024/03/17 11:34:03;;;;;;;10.80;6.93;;;;;;;;;;4869247;29;20536;-74
2024/03/17 11:36:38;;;;;;;13.50;7.75;;;;;;;;;;4868750;29;20056;-73
2024/03/17 11:42:11;;;;;;;10.50;7.15;;;;;;;;;;4854076;29;20532;-73
2024/03/17 11:44:45;;;;;;;14.35;6.97;;;;;;;;;;4869638;29;20056;-75
2024/03/17 11:47:14;;;;;;;9.30;7.30;;;;;;;;;;4869995;29;20045;-72
2024/03/17 11:49:45;;;;;;;11.48;8.25;;;;;;;;;;4869375;29;20516;-71
2024/03/17 11:52:15;;;;;;;10.07;7.90;;;;;;;;;;4853914;29;20421;-73
2024/03/17 11:54:45;;;;;;;14.63;8.40;;;;;;;;;;4868982;29;20060;-73
2024/03/17 11:57:25;;;;;;;11.18;7.22;;;;;;;;;;4868137;29;20061;-74
2024/03/17 11:59:55;;;;;;;11.65;7.72;;;;;;;;;;4868769;29;20041;-72
2024/03/17 12:02:27;;;;;;;12.45;8.15;;;;;;;;;;4869196;29;20055;-73
2024/03/17 12:05:01;;;;;;;12.73;7.78;;;;;;;;;;4868790;29;20056;-73
2024/03/17 12:07:30;;;;;;;10.35;7.65;;;;;;;;;;4868632;29;20044;-73
2024/03/17 12:09:59;;;;;;;11.75;7.80;;;;;;;;;;4868360;29;20055;-73
2024/03/17 12:12:34;;;;;;;10.48;6.93;;;;;;;;;;4868546;29;20053;-73
2024/03/17 12:15:11;;;;;;;10.00;6.80;;;;;;;;;;4868076;29;20489;-73
2024/03/17 12:17:40;;;;;;;11.55;7.55;;;;;;;;;;4869180;29;20059;-73
2024/03/17 12:20:19;;;;;;;10.63;6.28;;;;;;;;;;4869111;29;20053;-74
2024/03/17 12:22:48;;;;;;;8.73;6.07;;;;;;;;;;4868519;29;20041;-73
2024/03/17 12:25:20;;;;;;;;;;;;;;;;;;4869651;29;20049;-73
2024/03/17 12:27:49;;;;;;;10.27;6.68;;;;;;;;;;4868342;29;19986;-73
2024/03/17 12:30:18;;;;;;;8.30;6.78;;;;;;;;;;4868189;29;20045;-72
2024/03/17 12:32:48;;;;;;;10.52;6.90;;;;;;;;;;4868611;29;20053;-73
2024/03/17 12:35:17;;;;;;;9.93;7.25;;;;;;;;;;4867484;29;20063;-73
2024/03/17 12:37:46;;;;;;;9.23;6.75;;;;;;;;;;4868002;29;20076;-73
2024/03/17 12:40:23;;;;;;;8.52;6.50;;;;;;;;;;4868468;29;20048;-73
2024/03/17 12:42:52;;;;;;;10.57;6.95;;;;;;;;;;4867825;29;20509;-74
2024/03/17 12:45:22;;;;;;;8.63;6.38;;;;;;;;;;4867801;29;20121;-74
2024/03/17 12:47:52;;;;;;;9.35;6.63;;;;;;;;;;4867489;29;20048;-73
2024/03/17 12:50:20;;;;;;;16.10;7.88;;;;;;;;;;4868099;29;20517;-73
2024/03/17 12:53:22;;;;;;;10.90;6.35;;;;;;;;;;4871597;29;20049;-73
2024/03/17 13:01:28;;;;;;;8.90;6.40;;;;;;;;;;4867741;29;20048;-72
2024/03/17 13:04:09;;;;;;;10.98;7.85;;;;;;;;;;4867567;29;20588;-73
2024/03/17 13:06:38;;;;;;;13.48;7.03;;;;;;;;;;4867505;29;20056;-73
2024/03/17 13:09:10;;;;;;;10.98;7.32;;;;;;;;;;4868701;29;20457;-73
2024/03/17 13:11:39;;;;;;;12.30;7.45;;;;;;;;;;4867693;29;20041;-76
2024/03/17 13:14:13;;;;;;;10.10;7.18;;;;;;;;;;4852596;29;20060;-73
2024/03/17 13:16:42;;;;;;;11.77;7.80;;;;;;;;;;4851921;29;20053;-72
2024/03/17 13:19:11;;;;;;;10.95;7.95;;;;;;;;;;4852085;29;20063;-75
2024/03/17 13:21:39;;;;;;;12.93;7.47;;;;;;;;;;4868275;29;20053;-72
2024/03/17 13:24:08;;;;;;;9.32;7.38;;;;;;;;;;4866996;29;20056;-73
2024/03/17 13:26:37;;;;;;;10.18;7.03;;;;;;;;;;4868500;29;20049;-73
2024/03/17 13:29:06;;;;;;;11.30;7.13;;;;;;;;;;4869599;29;20595;-74
2024/03/17 13:31:35;;;;;;;9.80;7.30;;;;;;;;;;4852287;29;20873;-76
2024/03/17 13:34:04;;;;;;;7.57;6.35;;;;;;;;;;4866593;29;20045;-74
2024/03/17 13:36:33;;;;;;;11.20;6.97;;;;;;;;;;4867152;29;20049;-74
2024/03/17 13:39:01;;;;;;;10.85;7.57;;;;;;;;;;4866359;29;20067;-73
2024/03/17 13:41:30;;;;;;;10.57;6.32;;;;;;;;;;4867593;29;20045;-75
2024/03/17 13:43:58;;;;;;;11.07;6.05;;;;;;;;;;4866726;29;20430;-74
2024/03/17 13:46:27;;;;;;;13.60;7.97;;;;;;;;;;4866839;29;20057;-74
2024/03/17 13:49:08;;;;;;;11.10;6.90;;;;;;;;;;4866878;29;20604;-72
2024/03/17 13:51:37;;;;;;;12.95;7.15;;;;;;;;;;4867417;29;20486;-74
2024/03/17 13:54:06;;;;;;;8.68;6.40;;;;;;;;;;4867701;29;20061;-75
2024/03/17 13:56:34;;;;;;;7.07;4.65;;;;;;;;;;4866990;29;20063;-74
2024/03/17 13:59:02;;;;;;;8.02;5.07;;;;;;;;;;4867252;29;20060;-73
2024/03/17 14:01:31;;;;;;;8.43;4.30;;;;;;;;;;4866834;29;20045;-75
2024/03/17 14:04:00;;;;;;;7.97;4.18;;;;;;;;;;4867505;29;20064;-74
2024/03/17 14:06:28;;;;;;;5.65;3.67;;;;;;;;;;4867158;29;20389;-76
2024/03/17 14:08:57;;;;;;;6.95;4.63;;;;;;;;;;4867007;29;20045;-78
2024/03/17 14:11:28;;;;;;;6.38;4.03;;;;;;;;;;4866845;29;20528;-81
2024/03/17 14:13:57;;;;;;;6.18;3.70;;;;;;;;;;4867284;29;20056;-75
2024/03/17 14:16:25;;;;;;;5.53;3.83;;;;;;;;;;4867722;29;20396;-73
2024/03/17 14:18:54;;;;;;;;;;;;;;;;;;4867445;29;20052;-76
2024/03/17 14:21:22;;;;;;;3.67;2.53;;;;;;;;;;4866788;29;19927;-74
2024/03/17 14:23:52;;;;;;;7.63;2.67;;;;;;;;;;4866375;29;20048;-74
2024/03/17 14:26:21;;;;;;;4.85;2.53;;;;;;;;;;4866356;29;20518;-74
2024/03/17 14:28:51;;;;;;;;;;;;;;;;;;4867129;29;20060;-74
2024/03/17 14:31:19;;;;;;;5.40;2.78;;;;;;;;;;4867350;29;19928;-74
2024/03/17 14:33:47;;;;;;;10.15;2.92;;;;;;;;;;4866969;29;20049;-74
2024/03/17 14:36:16;;;;;;;5.60;2.38;;;;;;;;;;4869318;29;20497;-75
2024/03/17 14:38:44;;;;;;;6.28;2.70;;;;;;;;;;4870303;29;20060;-73
2024/03/17 14:41:12;;;;;;;4.28;2.50;;;;;;;;;;4870825;29;20053;-74
2024/03/17 14:43:41;;;;;;;7.03;2.70;;;;;;;;;;4870829;29;20055;-75
2024/03/17 14:46:12;;;;;;;10.15;3.10;;;;;;;;;;4870581;29;20045;-75
2024/03/17 14:48:42;;;;;;;7.07;2.65;;;;;;;;;;4870017;29;20049;-77
2024/03/17 14:51:11;;;;;;;3.78;2.25;;;;;;;;;;4854156;29;20096;-74
2024/03/17 14:53:47;;;;;;;9.55;2.88;;;;;;;;;;4869883;29;20508;-75
2024/03/17 14:56:17;;;;;;;6.35;2.25;;;;;;;;;;4870172;29;20072;-75
2024/03/17 14:58:47;;;;;;;4.53;2.00;;;;;;;;;;4869389;29;20516;-74